Weather Models
Both GFS & NAM
00z 06z 12z 18z
24hr Precip
00z 06z 12z 18z
36hr Simulated radar
00z 06z 12z 18z
SKEWT Soundings
00z 12z
Current Conditions (Updated 1:50am on 1/26/20)
Temperature
 41°
-0.41
42°  
41°  
0
10
20
30
40
50
60
70
80
90
100
Dew Point
33°
35°  
33°  
-20
-10
0
10
20
30
40
50
60
70
80
Wind Chill
37°
42°  
35°  
-20
-10
0
10
20
30
40
50
60
70
80
Wind Chill
Humidity
74%
76% 
74% 
0
10
20
30
40
50
60
70
80
90
100
Barometer
29.87
   Steady
29.87  
29.84  
28.00
28.30
28.60
28.90
29.20
29.50
29.80
30.10
30.40
30.70
31.00
Temperature
Dew Point
Humidity
Pressure
Wind
6mph
  W
Daily Rain
.00
.05
.10
.15
.20
.25
.30
.35
.40
.45
.50
Rain Today
 0.00" 
Month Rain
0.00
0.50
1.00
1.50
2.00
2.50
3.00
3.50
4.00
4.50
5.00
Month Rain
 2.60" 
Year Rain
0.00
0.50
1.00
1.50
2.00
2.50
3.00
3.50
4.00
4.50
5.00
Year Rain
 2.60" 
Sun & Moon Data
Sunrise 7:12am
Sunset 5:10pm
Moonrise 8:32am
Moonset 6:59pm
Moon % 1%
Other Rain Data
Past Hour 0.00 Past 24 Hours 1.57
Past 3 Hours 0.00 Past 7 Days 1.62
Past 6 Hours 0.00
Cloud Height
1910


Current Front Map
Current Satellite map
7 Day Forecast
NWS Forecast for Philadelphia PA
National Weather Service Forecast for: Philadelphia PA
Issued by: National Weather Service Philadelphia, PA
Updated: 12:48 am EST Jan 26, 2020

Philadelphia
 
Overnight

Overnight: Partly cloudy, with a low around 34. West wind around 7 mph.
Partly Cloudy
Sunday

Sunday: Partly sunny, with a high near 46. West wind 6 to 11 mph.
Partly Sunny
Sunday
Night
Sunday Night: Partly cloudy, with a low around 33. West wind 6 to 8 mph.
Partly Cloudy
Monday

Monday: Partly sunny, with a high near 45. West wind 6 to 10 mph.
Partly Sunny
Monday
Night
Monday Night: Mostly cloudy, with a low around 32. Northwest wind around 7 mph.
Mostly Cloudy
Tuesday

Tuesday: Mostly sunny, with a high near 43.
Mostly Sunny
Tuesday
Night
Tuesday Night: Partly cloudy, with a low around 29.
Partly Cloudy
Wednesday

Wednesday: Sunny, with a high near 41.
Sunny
Wednesday
Night
Wednesday Night: Partly cloudy, with a low around 27.
Partly Cloudy
Lo 34 °F Hi 46 °F Lo 33 °F Hi 45 °F Lo 32 °F Hi 43 °F Lo 29 °F Hi 41 °F Lo 27 °F

 

Overnight
 
Partly cloudy, with a low around 34. West wind around 7 mph.
Sunday
 
Partly sunny, with a high near 46. West wind 6 to 11 mph.
Sunday Night
 
Partly cloudy, with a low around 33. West wind 6 to 8 mph.
Monday
 
Partly sunny, with a high near 45. West wind 6 to 10 mph.
Monday Night
 
Mostly cloudy, with a low around 32. Northwest wind around 7 mph.
Tuesday
 
Mostly sunny, with a high near 43.
Tuesday Night
 
Partly cloudy, with a low around 29.
Wednesday
 
Sunny, with a high near 41.
Wednesday Night
 
Partly cloudy, with a low around 27.
Thursday
 
Mostly sunny, with a high near 41.
Thursday Night
 
Partly cloudy, with a low around 27.
Friday
 
Mostly sunny, with a high near 44.
Friday Night
 
Mostly cloudy, with a low around 30.
Saturday
 
A chance of showers. Partly sunny, with a high near 46. Chance of precipitation is 40%.

 

Forecast from NOAA-NWS for Philadelphia PA.

Area Weather Current Conditions
Nearby METAR Reports

KPHL - Philadelphia, Pennsylvania
Updated: Sun, 26-Jan-2020 12:54am EST
Clear
Clear
 Wind from WSW
Wind: WSW 9 mph , 15 km/h
Temperature: 37°F , 3°C
Wind Chill: 30°F , -1°C
Dew Point: 34°F , 1°C
Humidity: 87%
Barometer: 29.85 inHg , 1010.8 hPa
Clouds: Clear
Visibility: 10 miles , 16 km
2020/01/26 05:54 KPHL 260554Z 24008KT 10SM CLR 03/01 A2985 RMK AO2 SLP107 T00330006 10078 20022 50000 $
KMPO - Mt. Pocono, Pennsylvania
Updated: Sun, 26-Jan-2020 1:18am EST
Overcast
Overcast
 Wind from W
Wind: W 13 mph , 20 km/h
Temperature: 34°F , 1°C
Wind Chill: 25°F , -4°C
Dew Point: 30°F , -1°C
Humidity: 87%
Barometer: 29.74 inHg , 1007.1 hPa
Clouds: Overcast
Visibility: 10 miles , 16 km
Cloud details: Partly Cloudy 700 ft
Overcast 1600 ft
2020/01/26 06:18 KMPO 260618Z AUTO 27011KT 10SM SCT007 OVC016 01/M01 A2974 RMK AO2 T00061006 $
 
KACY - Atlantic City, New Jersey
Updated: Sun, 26-Jan-2020 12:54am EST
Clear
Clear
 Wind from W
Wind: W 6 mph , 9 km/h
Temperature: 41°F , 5°C
Wind Chill: 37°F , 3°C
Dew Point: 36°F , 2°C
Humidity: 81%
Barometer: 29.85 inHg , 1010.8 hPa
Clouds: Clear
Visibility: 10 miles , 16 km
2020/01/26 05:54 KACY 260554Z 27005KT 10SM CLR 05/02 A2985 RMK AO2 SLP106 T00500022 10089 20044 50004 $
KMIV - Millville, New Jersey
Updated: Sun, 26-Jan-2020 12:54am EST
Partly Cloudy
Partly Cloudy
 Wind from W
Wind: W 6 mph , 9 km/h
Temperature: 36°F , 2°C
Wind Chill: 31°F , -1°C
Dew Point: 34°F , 1°C
Humidity: 93%
Barometer: 29.86 inHg , 1011.2 hPa
Clouds: Partly Cloudy
Visibility: 10 miles , 16 km
Cloud details: Partly Cloudy 6000 ft
2020/01/26 05:54 KMIV 260554Z AUTO 27005KT 10SM SCT060 02/01 A2986 RMK AO2 SLP110 T00220011 10083 20006 53000
 
KWWD - Wildwood, New Jersey
Updated: Sun, 26-Jan-2020 12:56am EST
Overcast
Overcast
 Wind from W
Wind: W 8 mph , 13 km/h
Temperature: 45°F , 7°C
Wind Chill: 41°F , 5°C
Dew Point: 39°F , 4°C
Humidity: 81%
Barometer: 29.88 inHg , 1011.9 hPa
Clouds: Overcast
Visibility: 10 miles , 16 km
Cloud details: Overcast 6000 ft
2020/01/26 05:56 KWWD 260556Z AUTO 27007KT 10SM OVC060 07/04 A2988 RMK AO2 SLP120 T00670039 10083 20056 53001
KDOV - Dover Afb, Delaware
Updated: Sun, 26-Jan-2020 12:56am EST
Overcast
Overcast
 Wind from WSW
Wind: WSW 6 mph , 9 km/h
Temperature: 41°F , 5°C
Wind Chill: 37°F , 3°C
Dew Point: 37°F , 3°C
Humidity: 87%
Barometer: 29.87 inHg , 1011.5 hPa
Clouds: Overcast
Visibility: 10 miles , 16 km
Cloud details: Overcast 6000 ft
2020/01/26 05:56 KDOV 260556Z AUTO 25005KT 10SM OVC060 05/03 A2987 RMK AO2 SLP118 T00500032 10083 20046 53003 $
Severe Weather Map